createdAt,value
2023-09-30T00:06:28.522Z,12.90
2023-09-30T00:16:30.769Z,13.82
2023-09-30T00:26:39.715Z,10.07
2023-09-30T00:36:49.100Z,11.90
2023-09-30T00:46:57.090Z,10.95
2023-09-30T00:57:03.137Z,12.95
2023-09-30T01:07:07.613Z,13.80
2023-09-30T01:17:15.359Z,10.50
2023-09-30T01:27:24.871Z,10.95
2023-09-30T01:37:29.538Z,12.90
2023-09-30T01:47:34.159Z,13.02
2023-09-30T01:57:36.882Z,11.52
2023-09-30T02:07:42.474Z,11.30
2023-09-30T02:17:47.496Z,11.02
2023-09-30T02:27:52.226Z,13.23
2023-09-30T02:37:55.561Z,14.05
2023-09-30T02:48:01.302Z,12.68
2023-09-30T02:58:06.357Z,34.30
2023-09-30T03:08:13.135Z,12.65
2023-09-30T03:18:19.037Z,13.55
2023-09-30T03:28:25.832Z,11.07
2023-09-30T03:38:34.245Z,14.52
2023-09-30T03:48:44.253Z,12.40
2023-09-30T03:58:46.493Z,11.60
2023-09-30T04:08:52.635Z,12.90
2023-09-30T04:18:54.919Z,13.38
2023-09-30T04:29:12.179Z,9.43
2023-09-30T04:39:16.073Z,14.75
2023-09-30T04:49:20.943Z,11.73
2023-09-30T04:59:26.660Z,10.18
2023-09-30T05:09:30.208Z,10.50
2023-09-30T05:19:33.543Z,9.00
2023-09-30T05:29:35.753Z,8.15
2023-09-30T05:39:38.669Z,10.73
2023-09-30T05:49:41.962Z,7.82
2023-09-30T05:59:44.400Z,11.32
2023-09-30T06:09:46.769Z,7.30
2023-09-30T06:19:51.877Z,14.35
2023-09-30T06:29:54.339Z,11.32
2023-09-30T06:40:02.433Z,8.68
2023-09-30T06:50:09.507Z,10.77
2023-09-30T07:00:15.097Z,12.40
2023-09-30T07:10:21.811Z,12.18
2023-09-30T07:20:29.421Z,12.75
2023-09-30T07:30:34.016Z,12.40
2023-09-30T07:40:39.384Z,13.50
2023-09-30T07:50:44.572Z,15.95
2023-09-30T08:00:47.285Z,14.27
2023-09-30T08:10:51.405Z,16.58
2023-09-30T08:20:57.919Z,15.85
2023-09-30T08:31:10.603Z,17.90
2023-09-30T08:41:30.321Z,18.10
2023-09-30T08:51:34.511Z,14.75
2023-09-30T09:01:39.160Z,21.42
2023-09-30T09:11:41.526Z,21.38
2023-09-30T09:22:06.010Z,16.17
2023-09-30T09:32:20.811Z,19.92
2023-09-30T09:42:51.885Z,21.88
2023-09-30T09:52:56.641Z,23.30
2023-09-30T10:03:01.418Z,22.45
2023-09-30T10:13:10.752Z,23.55
2023-09-30T10:23:28.221Z,21.60
2023-09-30T10:33:34.903Z,19.52
2023-09-30T10:43:44.031Z,11.35
2023-09-30T10:53:48.607Z,10.57
2023-09-30T11:04:06.162Z,6.70
2023-09-30T11:14:38.497Z,6.07
2023-09-30T11:24:47.547Z,8.98
2023-09-30T11:34:50.651Z,4.38
2023-09-30T11:44:52.981Z,5.88
2023-09-30T11:55:02.602Z,6.60
2023-09-30T12:05:12.860Z,9.48
2023-09-30T12:15:23.706Z,6.03
2023-09-30T12:25:26.814Z,6.15
2023-09-30T12:35:34.579Z,6.07
2023-09-30T12:45:44.250Z,7.63
2023-09-30T12:55:56.007Z,7.82
2023-09-30T13:05:58.749Z,6.50
2023-09-30T13:16:02.414Z,10.73
2023-09-30T13:26:10.552Z,6.40
2023-09-30T13:36:13.197Z,7.13
2023-09-30T13:46:17.855Z,10.18
2023-09-30T13:56:20.891Z,5.68
2023-09-30T14:06:25.410Z,6.53
2023-09-30T14:16:32.747Z,12.68
2023-09-30T14:26:37.887Z,6.78
2023-09-30T14:36:42.309Z,6.70
2023-09-30T14:46:47.639Z,7.30
2023-09-30T14:56:53.256Z,7.90
2023-09-30T15:06:58.492Z,5.60
2023-09-30T15:17:05.545Z,9.65
2023-09-30T15:27:12.908Z,6.53
2023-09-30T15:37:17.671Z,4.82
2023-09-30T15:47:23.285Z,7.05
2023-09-30T15:57:29.379Z,6.65
2023-09-30T16:07:35.148Z,6.88
2023-09-30T16:17:40.430Z,5.72
2023-09-30T16:27:43.870Z,8.48
2023-09-30T16:37:49.594Z,12.20
2023-09-30T16:47:52.925Z,6.97
2023-09-30T16:57:57.575Z,14.48
2023-09-30T17:08:03.611Z,8.70
2023-09-30T17:18:05.871Z,9.20
2023-09-30T17:28:13.853Z,11.18
2023-09-30T17:38:18.377Z,9.13
2023-09-30T17:48:23.473Z,10.77
2023-09-30T17:58:31.872Z,8.13
2023-09-30T18:08:39.897Z,7.15
2023-09-30T18:18:45.258Z,12.63
2023-09-30T18:28:48.336Z,6.85
2023-09-30T18:38:54.532Z,10.43
2023-09-30T18:48:57.589Z,8.50
2023-09-30T18:59:01.471Z,9.77
2023-09-30T19:09:09.312Z,12.93
2023-09-30T19:19:15.266Z,11.63
2023-09-30T19:29:20.841Z,9.77
2023-09-30T19:39:27.279Z,7.65
2023-09-30T19:49:31.788Z,5.93
2023-09-30T19:59:45.002Z,6.43
2023-09-30T20:09:52.613Z,10.38
2023-09-30T20:19:58.776Z,6.72
2023-09-30T20:30:05.019Z,5.22
2023-09-30T20:40:08.662Z,11.07
2023-09-30T20:50:15.636Z,6.40
2023-09-30T21:00:20.912Z,9.55
2023-09-30T21:10:25.807Z,5.93
2023-09-30T21:20:28.438Z,7.03
2023-09-30T21:30:37.502Z,7.38
2023-09-30T21:40:45.020Z,9.07
2023-09-30T21:50:47.301Z,12.75
2023-09-30T22:00:55.910Z,8.93
2023-09-30T22:11:01.063Z,7.68
2023-09-30T22:21:03.634Z,10.93
2023-09-30T22:31:08.370Z,7.72
2023-09-30T22:41:16.509Z,8.93
2023-09-30T22:51:19.693Z,9.80
2023-09-30T23:01:25.918Z,13.52
2023-09-30T23:11:31.725Z,14.50
2023-09-30T23:21:38.102Z,12.13
2023-09-30T23:31:47.392Z,8.97
2023-09-30T23:41:55.778Z,11.97
2023-09-30T23:52:01.818Z,8.90
